Pagrindinis puslapis
METAR-TAF:

METAR-TAF

Oro uostai :

Letisija, Kolumbija

platuma: 04-10S, ilguma: 069-57W, Aukštis: 84 m

Dabartinis oras

Ataskaita buvo paskelbta 52 minutes, ne 21:00 UTC
Vėjas 5 kt iš Pietvakarių
Temperatūra 31°C
Drėgmė 79%
Slėgis 1009 hPa
Matomumas 10 km arba daugiau
Išsisklaidę debesys ne aukštis 2000 ft
Išsisklaidę debesys ne aukštis 20000 ft

METAR: SKLT 302100Z 22005KT 9999 SCT020 SCT200 31/27 A2980

Laikas: 16:52 (21:52 UTC)

Prognozė

Ataskaita buvo paskelbta 5 valandos ir 22 minutes, ne 16:30 UTC
Prognozė galioja nuo 30 metu 18 UTC su 31 metu 18 UTC
Vėjas 6 kt iš Rytų/Pietryčių
Matomumas 10 km arba daugiau
Mažai debesys ne aukštis 1700 ft
Išsisklaidę debesys ne aukštis 9000 ft
Tapsmas
nuo 30 metu 23 UTC su 31 metu 01 UTC
Vėjas kt iš Šiaurės
Tikimybė 40%
nuo 31 metu 08 UTC su 31 metu 11 UTC
Išsisklaidę debesys ne aukštis 1000 ft
dulksna

TAF: SKLT 301630Z 3018/3118 12006KT 9999 FEW017 SCT090 BECMG 3023/3101 00000KT PROB40 3108/3111 -DZ SCT010 TX30/3018Z TN22/3110Z

Orai ataskaitas ir orų prognozės (METAR, TAF).

turimą stotys yra geltonos ir raudonos taškus žemėlapyje.

Perkelti pele per norėdami pamatyti stoties vardą.

Tada spustelėkite, norėdami matyti oro stebėjimo ir prognozės.

Norėdami pakeisti žemėlapį: spustelėkite ant žalios mygtukų su juodo kryžiaus žemyn,; žalią mygtuką su brūkšneliu, jei norite nutolinti; arba žalių rodyklių gretimoms žemėlapius.


METAR-TAF: